Flight Track Log - Related Links

Times and Time Zones

All times are in EDT time to prevent confusion due to time zone crossing. See the SWA536 flight status page for this flight to view local times or setup timezone preferences in your user account.


Time Position Orientation Groundspeed Altitude Reporting Facility
EDT Latitude Longitude Course Direction KTS MPH feet Rate Location/Type
Mon 07:29:15 PM 41.7626 -87.7552 351° North  Level FlightAware Approximate
Mon 07:30:15 PM 41.6698 -87.7802 North  Level FlightAware Approximate
Mon 07:31:15 PM 41.5772 -87.8132 North  Level FlightAware Approximate
Mon 07:32:15 PM 41.4826 -87.8392 North  Level FlightAware Approximate
Mon 07:33:15 PM 41.3882 -87.8667 10° North  Level FlightAware Approximate
Mon 07:34:15 PM 41.2916 -87.8769 North  Level FlightAware Approximate
Mon 07:35:15 PM 41.1949 -87.8833 North  Level FlightAware Approximate
Mon 07:36:15 PM 41.0979 -87.8832 North  Level FlightAware Approximate
Mon 07:37:15 PM 41.0010 -87.8789 North  Level FlightAware Approximate
Mon 07:37:47 PM 41.8167 -87.7667 132° Southeast 163 188 2,700  Level Chicago TRACON
Mon 07:38:35 PM 41.7833 -87.7167 198° South 239 275 4,600 2,724 Climbing Chicago TRACON
Mon 07:41:03 PM 41.6019 -87.7978 180° South 289 333 11,600 2,827 Climbing Chicago Center
Mon 07:42:03 PM 41.5042 -87.7972 174° South 357 411 14,400 2,550 Climbing Chicago Center
Mon 07:43:03 PM 41.4081 -87.7831 174° South 372 428 16,700 2,800 Climbing Chicago Center
Mon 07:44:03 PM 41.2911 -87.7664 174° South 402 463 20,000 2,800 Climbing Chicago Center
Mon 07:45:03 PM 41.1697 -87.7500 175° South 421 484 22,300 2,400 Climbing Chicago Center
Mon 07:46:03 PM 41.0425 -87.7339 174° South 447 514 24,800 2,500 Climbing Chicago Center
Mon 07:47:03 PM 40.9108 -87.7153 174° South 464 534 27,300 2,400 Climbing Chicago Center
Mon 07:48:03 PM 40.7750 -87.6967 174° South 486 559 29,600 1,850 Climbing Chicago Center
Mon 07:49:03 PM 40.6372 -87.6781 174° South 492 566 31,000 1,650 Climbing Chicago Center
Mon 07:50:03 PM 40.4931 -87.6572 176° South 511 588 32,900 938 Climbing Chicago Center
Mon 07:51:11 PM 40.3183 -87.6408 173° South 499 574 33,000 47 Climbing Indianapolis Center
Mon 07:52:11 PM 40.1772 -87.6192 174° South 499 574 33,000  Level Indianapolis Center
Mon 07:53:11 PM 40.0319 -87.5997 174° South 508 585 33,000  Level Indianapolis Center
Mon 07:54:11 PM 39.8969 -87.5811 174° South 513 590 33,000  Level Indianapolis Center
Mon 07:55:11 PM 39.7517 -87.5619 174° South 518 596 33,000  Level Indianapolis Center
Mon 07:56:11 PM 39.6147 -87.5433 174° South 513 590 33,000  Level Indianapolis Center
Mon 07:57:11 PM 39.4736 -87.5247 174° South 513 590 33,000  Level Indianapolis Center
Mon 07:58:11 PM 39.3344 -87.5064 174° South 513 590 33,000  Level Indianapolis Center
Mon 07:59:11 PM 39.1953 -87.4878 176° South 513 590 33,000  Level Indianapolis Center
Mon 08:00:11 PM 39.0728 -87.4758 174° South 507 583 33,000  Level Indianapolis Center
Mon 08:01:11 PM 38.9314 -87.4575 174° South 507 583 33,000  Level Indianapolis Center
Mon 08:02:11 PM 38.7925 -87.4392 174° South 507 583 33,000  Level Indianapolis Center
Mon 08:03:11 PM 38.6533 -87.4211 174° South 507 583 33,000  Level Indianapolis Center
Mon 08:04:11 PM 38.5142 -87.4031 175° South 507 583 33,000  Level Indianapolis Center
Mon 08:05:11 PM 38.3769 -87.3878 175° South 507 583 33,000  Level Indianapolis Center
Mon 08:06:11 PM 38.2356 -87.3725 174° South 507 583 33,000 -1,140 Level Indianapolis Center
Mon 08:08:31 PM 37.8967 -87.3278 174° South 512 589 29,200 -1,890 Descending Memphis Center
Mon 08:09:31 PM 37.7567 -87.3094 176° South 512 589 26,700 -2,500 Descending Memphis Center
Mon 08:10:31 PM 37.6211 -87.2964 174° South 498 573 24,200 -2,450 Descending Memphis Center
Mon 08:11:31 PM 37.4894 -87.2781 173° South 492 566 21,800 -2,100 Descending Memphis Center
Mon 08:12:31 PM 37.3597 -87.2569 169° South 482 555 20,000 -900 Descending Memphis Center
Mon 08:13:31 PM 37.2403 -87.2278 169° South 450 518 20,000 -650 Level Memphis Center
Mon 08:14:31 PM 37.1228 -87.1986 168° South 440 506 18,700 -1,550 Descending Memphis Center
Mon 08:15:31 PM 37.0222 -87.1714 169° South 426 490 16,900 -1,950 Descending Memphis Center
Mon 08:16:31 PM 36.9131 -87.1447 159° South 409 471 14,800 -2,150 Descending Memphis Center
Mon 08:17:31 PM 36.8119 -87.0969 154° Southeast 391 450 12,600 -1,900 Descending Memphis Center
Mon 08:18:31 PM 36.7208 -87.0411 154° Southeast 372 428 11,000 -800 Descending Memphis Center
Mon 08:19:31 PM 36.6297 -86.9853 153° Southeast 361 415 11,000  Level Memphis Center
Mon 08:20:31 PM 36.5406 -86.9297 155° Southeast 361 415 11,000 -300 Level Memphis Center
Mon 08:21:31 PM 36.4431 -86.8719 153° Southeast 356 410 10,400 -700 Descending Memphis Center
Mon 08:22:31 PM 36.3561 -86.8164 154° Southeast 356 410 9,600 -1,000 Descending Memphis Center
Mon 08:23:31 PM 36.2756 -86.7683 160° South 334 384 8,400 -1,250 Descending Memphis Center
Mon 08:24:31 PM 36.2017 -86.7356 194° South 322 371 7,100 -1,200 Descending Memphis Center
Mon 08:25:31 PM 36.1250 -86.7594 194° South 289 333 6,000 -850 Descending Memphis Center
Mon 08:26:31 PM 36.0547 -86.7806 196° South 273 314 5,400 -950 Descending Memphis Center
Mon 08:27:31 PM 35.9908 -86.8039 101° East 253 291 4,100 -1,200 Descending Memphis Center
Mon 08:28:31 PM 35.9806 -86.7403 22° Northeast 123 142 3,000 -1,000 Descending Memphis Center
Mon 08:29:31 PM 36.0258 -86.7178 17° North 107 123 2,100 -800 Descending Memphis Center
Mon 08:30:31 PM 36.0650 -86.7031 17° North 121 139 1,400 -700 Descending Memphis Center
Mon 08:31:31 PM 36.1022 -86.6886 230° Southwest 133 153 700 -700 Descending Memphis Center
Mon 08:39:15 PM 35.5247 -87.5421 50° Northeast  Level FlightAware Approximate
Mon 08:40:15 PM 35.5997 -87.4324 50° Northeast  Level FlightAware Approximate
Mon 08:41:15 PM 35.6746 -87.3225 50° Northeast  Level FlightAware Approximate

Login

Don't have an account? Register now (free) for customized features, flight alerts, and more!